createdAt,value
2018-07-30T00:00:15.320Z,25.30
2018-07-30T00:02:44.764Z,25.30
2018-07-30T00:05:13.085Z,25.30
2018-07-30T00:07:41.658Z,25.30
2018-07-30T00:10:10.497Z,25.20
2018-07-30T00:12:38.577Z,25.20
2018-07-30T00:15:06.927Z,25.20
2018-07-30T00:17:35.746Z,25.20
2018-07-30T00:20:04.594Z,25.10
2018-07-30T00:25:01.047Z,25.20
2018-07-30T00:29:57.602Z,25.00
2018-07-30T00:34:54.812Z,24.90
2018-07-30T00:37:22.912Z,24.90
2018-07-30T00:39:51.169Z,24.90
2018-07-30T00:42:19.253Z,24.90
2018-07-30T00:44:47.378Z,24.90
2018-07-30T00:47:15.447Z,24.80
2018-07-30T00:52:11.763Z,24.80
2018-07-30T00:54:40.175Z,24.80
2018-07-30T00:59:37.275Z,24.70
2018-07-30T01:02:05.423Z,24.70
2018-07-30T01:04:33.691Z,24.70
2018-07-30T01:07:01.817Z,24.70
2018-07-30T01:09:31.057Z,24.70
2018-07-30T01:11:59.462Z,24.60
2018-07-30T01:14:28.156Z,24.50
2018-07-30T01:16:56.283Z,24.50
2018-07-30T01:19:24.543Z,24.50
2018-07-30T01:21:52.739Z,24.50
2018-07-30T01:24:22.083Z,24.50
2018-07-30T01:26:50.157Z,24.50
2018-07-30T01:29:19.094Z,24.50
2018-07-30T01:31:47.213Z,24.50
2018-07-30T01:34:15.326Z,24.40
2018-07-30T01:36:43.474Z,24.40
2018-07-30T01:39:11.881Z,24.40
2018-07-30T01:41:40.098Z,24.30
2018-07-30T01:49:05.314Z,24.20
2018-07-30T01:51:33.548Z,24.20
2018-07-30T01:54:01.780Z,24.20
2018-07-30T01:56:30.978Z,24.20
2018-07-30T01:58:59.036Z,24.20
2018-07-30T02:01:27.314Z,24.20
2018-07-30T02:03:56.672Z,24.10
2018-07-30T02:06:24.876Z,24.10
2018-07-30T02:08:53.762Z,24.00
2018-07-30T02:11:22.193Z,24.00
2018-07-30T02:13:50.340Z,24.00
2018-07-30T02:16:19.406Z,23.90
2018-07-30T02:18:47.640Z,23.90
2018-07-30T02:21:16.606Z,23.90
2018-07-30T02:23:45.563Z,23.90
2018-07-30T02:26:14.879Z,23.90
2018-07-30T02:28:43.740Z,23.90
2018-07-30T02:31:12.181Z,24.00
2018-07-30T02:33:40.538Z,24.00
2018-07-30T02:36:08.801Z,24.00
2018-07-30T02:38:37.018Z,24.00
2018-07-30T02:43:33.651Z,24.00
2018-07-30T02:46:01.788Z,24.00
2018-07-30T02:48:29.990Z,23.90
2018-07-30T02:50:58.318Z,23.90
2018-07-30T02:55:54.825Z,23.90
2018-07-30T02:58:23.012Z,23.80
2018-07-30T03:00:51.298Z,23.80
2018-07-30T03:03:19.500Z,23.70
2018-07-30T03:08:15.916Z,23.60
2018-07-30T03:10:44.198Z,23.60
2018-07-30T03:13:12.396Z,23.60
2018-07-30T03:18:08.670Z,23.50
2018-07-30T03:20:36.962Z,23.50
2018-07-30T03:23:06.325Z,23.40
2018-07-30T03:30:31.129Z,23.30
2018-07-30T03:32:59.481Z,23.30
2018-07-30T03:35:27.948Z,23.30
2018-07-30T03:37:56.071Z,23.30
2018-07-30T03:40:24.374Z,23.30
2018-07-30T03:42:52.723Z,23.20
2018-07-30T03:45:20.985Z,23.20
2018-07-30T03:47:49.347Z,23.20
2018-07-30T03:50:17.741Z,23.10
2018-07-30T03:52:46.930Z,23.10
2018-07-30T03:55:15.605Z,23.10
2018-07-30T03:57:43.885Z,23.10
2018-07-30T04:00:12.847Z,23.00
2018-07-30T04:02:41.928Z,23.00
2018-07-30T04:07:39.750Z,23.10
2018-07-30T04:10:09.071Z,23.00
2018-07-30T04:12:37.306Z,23.00
2018-07-30T04:15:07.371Z,23.10
2018-07-30T04:17:35.993Z,23.10
2018-07-30T04:22:32.584Z,23.20
2018-07-30T04:25:00.819Z,23.20
2018-07-30T04:27:29.039Z,23.20
2018-07-30T04:29:57.295Z,23.20
2018-07-30T04:32:25.550Z,23.20
2018-07-30T04:39:50.671Z,23.20
2018-07-30T04:42:18.907Z,23.30
2018-07-30T04:44:47.195Z,23.30
2018-07-30T04:47:15.275Z,23.30
2018-07-30T04:49:43.373Z,23.30
2018-07-30T04:52:11.478Z,23.30
2018-07-30T04:54:39.568Z,23.30
2018-07-30T04:57:07.748Z,23.40
2018-07-30T04:59:35.862Z,23.40
2018-07-30T05:02:04.032Z,23.40
2018-07-30T05:04:32.286Z,23.50
2018-07-30T05:07:00.574Z,23.50
2018-07-30T05:09:28.897Z,23.60
2018-07-30T05:14:25.193Z,23.70
2018-07-30T05:16:53.308Z,23.80
2018-07-30T05:19:21.876Z,23.80
2018-07-30T05:21:50.015Z,23.90
2018-07-30T05:24:18.352Z,24.00
2018-07-30T05:29:14.886Z,24.30
2018-07-30T05:31:43.059Z,24.40
2018-07-30T05:34:11.309Z,24.60
2018-07-30T05:36:39.583Z,25.00
2018-07-30T05:39:10.235Z,25.50
2018-07-30T05:41:39.173Z,26.10
2018-07-30T05:44:07.381Z,26.70
2018-07-30T05:46:35.567Z,27.30
2018-07-30T05:49:03.963Z,27.90
2018-07-30T05:51:32.039Z,28.50
2018-07-30T05:54:00.884Z,29.00
2018-07-30T05:56:29.107Z,29.40
2018-07-30T05:58:57.255Z,30.00
2018-07-30T06:01:25.516Z,30.20
2018-07-30T06:03:53.604Z,30.70
2018-07-30T06:06:21.715Z,31.00
2018-07-30T06:08:49.815Z,31.30
2018-07-30T06:11:17.952Z,31.50
2018-07-30T06:13:46.182Z,31.70
2018-07-30T06:16:14.383Z,31.90
2018-07-30T06:18:42.641Z,32.30
2018-07-30T06:21:10.894Z,32.80
2018-07-30T06:23:39.080Z,33.30
2018-07-30T06:26:07.234Z,34.00
2018-07-30T06:28:35.339Z,34.20
2018-07-30T06:31:03.548Z,34.30
2018-07-30T06:33:31.787Z,34.80
2018-07-30T06:35:59.994Z,35.40
2018-07-30T06:38:28.299Z,35.70
2018-07-30T06:40:56.552Z,35.90
2018-07-30T06:43:24.816Z,36.00
2018-07-30T06:45:53.060Z,36.30
2018-07-30T06:48:21.538Z,36.50
2018-07-30T06:50:49.944Z,36.70
2018-07-30T06:53:18.463Z,37.40
2018-07-30T06:55:46.802Z,37.80
2018-07-30T06:58:15.033Z,37.70
2018-07-30T07:00:43.248Z,38.00
2018-07-30T07:03:11.434Z,38.50
2018-07-30T07:05:39.497Z,39.10
2018-07-30T07:08:07.992Z,39.60
2018-07-30T07:10:36.269Z,39.50
2018-07-30T07:13:04.461Z,39.50
2018-07-30T07:15:32.579Z,39.60
2018-07-30T07:18:00.805Z,39.90
2018-07-30T07:20:28.957Z,39.90
2018-07-30T07:22:57.133Z,40.50
2018-07-30T07:25:25.255Z,41.10
2018-07-30T07:32:49.491Z,42.50
2018-07-30T07:35:17.693Z,43.20
2018-07-30T07:37:45.945Z,43.70
2018-07-30T07:40:14.270Z,43.70
2018-07-30T07:42:43.070Z,43.60
2018-07-30T07:45:11.294Z,44.00
2018-07-30T07:47:39.491Z,44.20
2018-07-30T07:50:08.041Z,44.60
2018-07-30T07:55:04.323Z,45.10
2018-07-30T07:57:32.487Z,44.20
2018-07-30T08:00:00.767Z,45.00
2018-07-30T08:02:29.057Z,45.60
2018-07-30T08:04:57.189Z,45.90
2018-07-30T08:07:25.459Z,46.00
2018-07-30T08:12:21.804Z,46.70
2018-07-30T08:19:46.434Z,45.40
2018-07-30T08:22:14.698Z,47.00
2018-07-30T08:24:42.831Z,47.60
2018-07-30T08:27:11.042Z,47.60
2018-07-30T08:29:39.302Z,47.40
2018-07-30T08:32:07.563Z,47.90
2018-07-30T08:34:35.743Z,47.70
2018-07-30T08:37:04.081Z,47.60
2018-07-30T08:39:32.294Z,46.70
2018-07-30T08:42:00.527Z,46.90
2018-07-30T08:49:24.843Z,46.90
2018-07-30T08:54:21.222Z,48.90
2018-07-30T08:56:49.434Z,50.10
2018-07-30T08:59:17.684Z,51.10
2018-07-30T09:01:45.852Z,51.50
2018-07-30T09:04:14.002Z,51.90
2018-07-30T09:06:42.186Z,52.50
2018-07-30T09:09:10.882Z,52.30
2018-07-30T09:11:39.516Z,52.50
2018-07-30T09:14:08.086Z,53.00
2018-07-30T09:16:36.344Z,51.90
2018-07-30T09:19:04.894Z,52.80
2018-07-30T09:21:32.993Z,52.90
2018-07-30T09:24:01.144Z,53.10
2018-07-30T09:26:29.318Z,51.90
2018-07-30T09:28:57.538Z,51.70
2018-07-30T09:31:25.810Z,50.90
2018-07-30T09:33:54.148Z,52.10
2018-07-30T09:36:25.522Z,51.30
2018-07-30T09:38:54.515Z,51.90
2018-07-30T09:41:22.886Z,52.50
2018-07-30T09:43:52.396Z,51.70
2018-07-30T09:46:20.714Z,50.40
2018-07-30T09:48:48.772Z,46.90
2018-07-30T09:51:17.222Z,47.60
2018-07-30T09:53:45.539Z,48.60
2018-07-30T09:56:13.892Z,48.90
2018-07-30T10:01:15.778Z,50.60
2018-07-30T10:03:43.860Z,52.40
2018-07-30T10:06:12.190Z,50.90
2018-07-30T10:08:40.523Z,50.00
2018-07-30T10:11:08.702Z,50.30
2018-07-30T10:13:37.645Z,49.50
2018-07-30T10:16:05.840Z,48.40
2018-07-30T10:18:34.635Z,49.20
2018-07-30T10:21:02.914Z,50.70
2018-07-30T10:23:31.219Z,50.70
2018-07-30T10:25:59.423Z,52.40
2018-07-30T10:30:55.800Z,54.40
2018-07-30T10:33:24.264Z,55.60
2018-07-30T10:38:20.704Z,53.10
2018-07-30T10:40:48.648Z,50.80
2018-07-30T10:43:16.920Z,47.90
2018-07-30T10:45:45.174Z,46.10
2018-07-30T10:48:13.431Z,47.00
2018-07-30T10:50:41.517Z,48.70
2018-07-30T10:53:09.910Z,49.60
2018-07-30T10:55:38.072Z,50.50
2018-07-30T10:58:06.386Z,48.70
2018-07-30T11:00:35.273Z,46.80
2018-07-30T11:03:03.876Z,45.80
2018-07-30T11:05:32.296Z,44.10
2018-07-30T11:08:00.553Z,43.50
2018-07-30T11:10:28.764Z,44.30
2018-07-30T11:12:57.040Z,45.60
2018-07-30T11:15:25.187Z,46.20
2018-07-30T11:17:53.552Z,49.30
2018-07-30T11:22:49.655Z,51.50
2018-07-30T11:25:17.883Z,52.50
2018-07-30T11:27:46.128Z,52.20
2018-07-30T11:30:14.327Z,53.00
2018-07-30T11:35:10.889Z,52.50
2018-07-30T11:37:39.050Z,52.50
2018-07-30T11:42:35.574Z,51.90
2018-07-30T11:45:04.211Z,49.80
2018-07-30T11:47:32.527Z,48.50
2018-07-30T11:50:00.621Z,48.90
2018-07-30T11:52:28.718Z,50.30
2018-07-30T11:59:53.667Z,50.20
2018-07-30T12:02:21.786Z,47.80
2018-07-30T12:04:56.647Z,46.10
2018-07-30T12:09:53.118Z,44.90
2018-07-30T12:12:21.818Z,45.90
2018-07-30T12:14:49.924Z,47.50
2018-07-30T12:17:18.188Z,49.50
2018-07-30T12:19:46.692Z,51.80
2018-07-30T12:22:14.900Z,53.70
2018-07-30T12:27:11.374Z,55.90
2018-07-30T12:29:39.706Z,56.70
2018-07-30T12:32:08.201Z,56.00
2018-07-30T12:34:36.262Z,55.30
2018-07-30T12:37:05.376Z,54.50
2018-07-30T12:44:29.918Z,53.30
2018-07-30T12:49:26.301Z,54.30
2018-07-30T12:51:54.429Z,55.10
2018-07-30T12:59:19.807Z,54.80
2018-07-30T13:01:48.060Z,55.90
2018-07-30T13:04:16.595Z,55.90
2018-07-30T13:06:45.109Z,55.90
2018-07-30T13:11:41.637Z,56.00
2018-07-30T13:14:09.898Z,56.00
2018-07-30T13:16:38.622Z,54.90
2018-07-30T13:19:06.946Z,54.30
2018-07-30T13:21:35.204Z,53.90
2018-07-30T13:24:03.363Z,54.00
2018-07-30T13:28:59.847Z,54.30
2018-07-30T13:31:28.358Z,53.10
2018-07-30T13:33:56.918Z,52.90
2018-07-30T13:36:25.205Z,53.10
2018-07-30T13:38:53.358Z,53.30
2018-07-30T13:41:21.690Z,53.20
2018-07-30T13:43:49.773Z,53.30
2018-07-30T13:46:18.836Z,53.30
2018-07-30T13:48:46.985Z,52.90
2018-07-30T13:51:15.159Z,52.60
2018-07-30T13:53:43.371Z,52.50
2018-07-30T13:56:11.523Z,52.50
2018-07-30T13:58:39.673Z,52.20
2018-07-30T14:01:08.001Z,51.70
2018-07-30T14:03:36.112Z,51.20
2018-07-30T14:06:04.527Z,51.30
2018-07-30T14:08:32.787Z,49.90
2018-07-30T14:11:00.907Z,48.90
2018-07-30T14:13:29.006Z,47.00
2018-07-30T14:18:25.195Z,43.60
2018-07-30T14:20:53.613Z,42.60
2018-07-30T14:23:21.751Z,41.70
2018-07-30T14:25:49.865Z,41.30
2018-07-30T14:28:18.073Z,40.90
2018-07-30T14:30:47.167Z,40.50
2018-07-30T14:33:15.595Z,40.10
2018-07-30T14:35:43.942Z,40.00
2018-07-30T14:38:12.168Z,39.80
2018-07-30T14:40:40.393Z,39.60
2018-07-30T14:43:08.574Z,39.20
2018-07-30T14:45:36.894Z,39.20
2018-07-30T14:48:05.412Z,39.20
2018-07-30T14:50:33.630Z,39.10
2018-07-30T14:53:02.180Z,39.10
2018-07-30T14:55:30.448Z,38.90
2018-07-30T14:57:58.655Z,38.80
2018-07-30T15:00:26.936Z,38.60
2018-07-30T15:02:55.083Z,38.50
2018-07-30T15:05:23.553Z,38.40
2018-07-30T15:07:52.082Z,38.50
2018-07-30T15:10:20.219Z,38.60
2018-07-30T15:12:48.403Z,38.50
2018-07-30T15:15:17.660Z,38.40
2018-07-30T15:17:45.988Z,38.20
2018-07-30T15:20:14.592Z,38.10
2018-07-30T15:22:42.666Z,38.00
2018-07-30T15:25:11.860Z,38.00
2018-07-30T15:27:40.629Z,37.80
2018-07-30T15:30:08.933Z,37.70
2018-07-30T15:32:37.092Z,37.60
2018-07-30T15:35:05.295Z,37.50
2018-07-30T15:37:33.528Z,37.40
2018-07-30T15:40:01.852Z,37.30
2018-07-30T15:42:30.024Z,37.30
2018-07-30T15:44:58.172Z,37.10
2018-07-30T15:47:26.321Z,37.00
2018-07-30T15:49:54.645Z,36.70
2018-07-30T15:52:22.975Z,36.80
2018-07-30T15:54:52.195Z,36.70
2018-07-30T15:57:20.373Z,36.60
2018-07-30T15:59:49.441Z,36.60
2018-07-30T16:02:17.657Z,36.60
2018-07-30T16:04:45.787Z,36.60
2018-07-30T16:09:42.576Z,36.80
2018-07-30T16:12:10.814Z,36.70
2018-07-30T16:14:38.961Z,36.80
2018-07-30T16:17:07.253Z,36.80
2018-07-30T16:19:35.907Z,36.80
2018-07-30T16:22:04.316Z,36.90
2018-07-30T16:24:33.209Z,36.90
2018-07-30T16:27:01.441Z,36.90
2018-07-30T16:29:29.621Z,36.60
2018-07-30T16:31:57.789Z,36.50
2018-07-30T16:34:25.969Z,36.20
2018-07-30T16:36:54.348Z,36.10
2018-07-30T16:39:22.645Z,36.10
2018-07-30T16:41:50.986Z,36.20
2018-07-30T16:44:19.433Z,36.30
2018-07-30T16:49:15.622Z,36.40
2018-07-30T16:51:43.800Z,36.30
2018-07-30T16:54:11.923Z,36.20
2018-07-30T16:59:08.198Z,36.10
2018-07-30T17:01:36.437Z,36.10
2018-07-30T17:04:05.193Z,36.10
2018-07-30T17:06:33.483Z,36.10
2018-07-30T17:09:01.923Z,36.00
2018-07-30T17:11:30.239Z,35.80
2018-07-30T17:13:58.477Z,35.70
2018-07-30T17:16:26.739Z,35.70
2018-07-30T17:18:55.564Z,35.60
2018-07-30T17:21:23.812Z,35.50
2018-07-30T17:23:53.744Z,35.40
2018-07-30T17:26:22.354Z,35.30
2018-07-30T17:28:50.517Z,35.30
2018-07-30T17:31:18.708Z,35.20
2018-07-30T17:33:46.956Z,35.10
2018-07-30T17:36:15.684Z,35.10
2018-07-30T17:38:43.968Z,35.00
2018-07-30T17:41:13.136Z,34.90
2018-07-30T17:43:41.435Z,34.90
2018-07-30T17:46:09.846Z,34.80
2018-07-30T17:51:06.454Z,34.50
2018-07-30T17:56:02.752Z,34.30
2018-07-30T18:00:59.214Z,34.10
2018-07-30T18:03:29.051Z,34.10
2018-07-30T18:05:57.295Z,34.00
2018-07-30T18:13:22.554Z,33.70
2018-07-30T18:15:50.749Z,33.60
2018-07-30T18:18:18.988Z,33.50
2018-07-30T18:23:15.397Z,33.30
2018-07-30T18:25:43.581Z,33.20
2018-07-30T18:28:12.350Z,33.10
2018-07-30T18:30:40.529Z,33.00
2018-07-30T18:33:09.145Z,33.00
2018-07-30T18:35:37.418Z,32.90
2018-07-30T18:38:05.631Z,32.70
2018-07-30T18:40:34.108Z,32.70
2018-07-30T18:43:02.384Z,32.60
2018-07-30T18:47:59.103Z,32.30
2018-07-30T18:50:27.261Z,32.20
2018-07-30T18:52:55.387Z,32.10
2018-07-30T18:57:51.810Z,31.90
2018-07-30T19:00:20.086Z,31.90
2018-07-30T19:02:48.261Z,31.70
2018-07-30T19:05:16.472Z,31.60
2018-07-30T19:07:44.804Z,31.60
2018-07-30T19:10:12.982Z,31.50
2018-07-30T19:12:41.201Z,31.40
2018-07-30T19:15:09.402Z,31.40
2018-07-30T19:17:37.866Z,31.30
2018-07-30T19:20:06.077Z,31.20
2018-07-30T19:22:34.307Z,31.20
2018-07-30T19:25:02.543Z,31.10
2018-07-30T19:27:30.620Z,31.10
2018-07-30T19:29:58.838Z,31.00
2018-07-30T19:32:27.015Z,31.00
2018-07-30T19:34:55.327Z,30.90
2018-07-30T19:37:23.588Z,30.90
2018-07-30T19:39:51.837Z,30.80
2018-07-30T19:42:20.092Z,30.80
2018-07-30T19:44:48.487Z,30.80
2018-07-30T19:49:44.895Z,30.80
2018-07-30T19:52:13.646Z,30.70
2018-07-30T19:54:41.898Z,30.70
2018-07-30T19:59:38.335Z,30.70
2018-07-30T20:02:06.704Z,30.70
2018-07-30T20:04:34.917Z,30.70
2018-07-30T20:07:04.073Z,30.70
2018-07-30T20:09:32.194Z,30.70
2018-07-30T20:12:00.567Z,30.70
2018-07-30T20:14:28.795Z,30.60
2018-07-30T20:16:58.150Z,30.50
2018-07-30T20:19:26.363Z,30.40
2018-07-30T20:21:55.079Z,30.40
2018-07-30T20:24:23.576Z,30.40
2018-07-30T20:26:52.044Z,30.30
2018-07-30T20:29:20.641Z,30.30
2018-07-30T20:31:48.776Z,30.20
2018-07-30T20:34:16.959Z,30.10
2018-07-30T20:36:45.190Z,30.10
2018-07-30T20:39:13.450Z,30.00
2018-07-30T20:44:09.725Z,29.90
2018-07-30T20:46:37.970Z,29.80
2018-07-30T20:49:06.330Z,29.80
2018-07-30T20:51:41.559Z,29.70
2018-07-30T20:54:12.151Z,29.70
2018-07-30T20:56:40.492Z,29.60
2018-07-30T20:59:08.810Z,29.50
2018-07-30T21:01:37.187Z,29.50
2018-07-30T21:04:05.888Z,29.40
2018-07-30T21:06:34.327Z,29.40
2018-07-30T21:11:31.390Z,29.30
2018-07-30T21:13:59.526Z,29.30
2018-07-30T21:16:27.824Z,29.20
2018-07-30T21:18:56.550Z,29.10
2018-07-30T21:21:24.747Z,29.10
2018-07-30T21:23:52.933Z,29.10
2018-07-30T21:26:21.388Z,29.00
2018-07-30T21:28:49.571Z,29.00
2018-07-30T21:31:17.800Z,28.90
2018-07-30T21:33:46.244Z,28.80
2018-07-30T21:36:14.610Z,28.80
2018-07-30T21:38:42.870Z,28.70
2018-07-30T21:41:11.044Z,28.70
2018-07-30T21:43:39.412Z,28.60
2018-07-30T21:48:35.928Z,28.50
2018-07-30T21:51:04.126Z,28.40
2018-07-30T21:53:32.488Z,28.40
2018-07-30T21:56:00.675Z,28.30
2018-07-30T21:58:29.786Z,28.30
2018-07-30T22:03:26.845Z,28.20
2018-07-30T22:08:26.700Z,28.10
2018-07-30T22:10:54.957Z,28.10
2018-07-30T22:15:52.979Z,28.00
2018-07-30T22:18:21.185Z,27.90
2018-07-30T22:20:49.349Z,27.90
2018-07-30T22:23:17.694Z,27.90
2018-07-30T22:25:45.823Z,27.90
2018-07-30T22:28:14.147Z,27.80
2018-07-30T22:30:42.341Z,27.80
2018-07-30T22:33:10.692Z,27.70
2018-07-30T22:35:38.870Z,27.70
2018-07-30T22:38:07.017Z,27.60
2018-07-30T22:40:35.252Z,27.50
2018-07-30T22:43:03.527Z,27.50
2018-07-30T22:45:31.728Z,27.40
2018-07-30T22:48:00.146Z,27.40
2018-07-30T22:50:28.327Z,27.40
2018-07-30T22:52:56.518Z,27.30
2018-07-30T22:55:24.634Z,27.30
2018-07-30T22:57:52.938Z,27.20
2018-07-30T23:02:49.225Z,27.20
2018-07-30T23:05:17.368Z,27.20
2018-07-30T23:10:13.657Z,27.10
2018-07-30T23:12:42.065Z,27.10
2018-07-30T23:15:10.440Z,27.10
2018-07-30T23:17:38.978Z,27.00
2018-07-30T23:20:07.094Z,27.00
2018-07-30T23:22:35.275Z,26.90
2018-07-30T23:25:03.769Z,26.90
2018-07-30T23:27:32.103Z,26.90
2018-07-30T23:30:00.416Z,26.80
2018-07-30T23:32:28.615Z,26.80
2018-07-30T23:37:25.470Z,26.70
2018-07-30T23:44:49.966Z,26.60
2018-07-30T23:47:18.080Z,26.50
2018-07-30T23:49:46.528Z,26.40
2018-07-30T23:52:15.594Z,26.40
2018-07-30T23:54:43.823Z,26.40
2018-07-30T23:59:40.164Z,26.30
